Kodiak Airport
PADQ : now visible

Airfield :











YOU CAN JOIN US ON...

 
LOGIN :

Register | Disclaimer

   EN    FR    IT 

 









Legend :    VFR   Marginal VFR   IFR   Intensive IFR   Very Intensive IFR
Visi :
Ceiling :
>= 8 km
>= 3000ft
5 to 8 km
1000 to 3000 ft
1500m to 5 km
500 to 1000 ft
800 to 1500m
200 to 500 ft
< 800m
< 200 ft
Symbols :   Thunderstorms  Fog  Heavy snow  Heavy precipitations  Wind > 20 kt






- Airport Elevation : 78 ft
- IATA code : ADQ


PADQ - Kodiak

CURRENT METAR :
  • 020700Z AUTO 14013KT 10SM -RA BKN029 OVC041 05/02 A3019 RMK AO2 P0000 T00500022 TSNO $

EXPIRED METARs :
  • 020623Z AUTO 14014KT 10SM -RA BKN023 BKN028 OVC048 05/02 A3019 RMK AO2 P0000 T00500022 TSNO $
  • 020608Z AUTO 13014KT 10SM -RA FEW020 BKN032 OVC050 05/02 A3019 RMK AO2 P0000 T00500022 TSNO $
  • 020553Z 13013KT 10SM -RA BKN020 BKN033 OVC049 04/02 A3019 RMK AO2 SLP223 P0000 60004 T00440022 10050 20044 53003 $
  • 020453Z 11009KT 10SM -RA BKN020 OVC043 04/02 A3018 RMK AO2 RAB32 SLP222 P0000 T00440022 $

TAF PADQ
Valid from the 02 at 06:00 until the 03 at 06:00 UTC


020544Z 0206/0306 10009KT 5SM -RA BR BKN020 OVC040
TEMPO 0206/0210 SCT009 BKN015
FM022300 11005KT 3SM -RA BR BKN007 OVC010



MET'MAP, your aeronautical weather chart ! - Copyright ORBIFLY December 2007 - Disclaimer

ORBIFLY MET'MAP TEAM :

Programming & Development : Alexandra Zaïnal
Concept & original design : Baudouin d'Aumeries
Assistance for programming : Marc-Olivier Méhu
Technical & hardware support : Manuel Goepfert

Contact : metmap@orbifly.com




SOURCES & CREDITS :

   NOAA       Earth
Advisory